createdAt,value
2019-03-24T00:00:26.412Z,100446.09
2019-03-24T00:02:57.827Z,100452.27
2019-03-24T00:05:29.004Z,100458.34
2019-03-24T00:08:00.378Z,100458.45
2019-03-24T00:10:31.663Z,100462.41
2019-03-24T00:13:02.975Z,100456.11
2019-03-24T00:15:34.409Z,100455.73
2019-03-24T00:18:05.843Z,100458.27
2019-03-24T00:20:37.079Z,100449.41
2019-03-24T00:23:08.493Z,100449.66
2019-03-24T00:25:39.969Z,100457.70
2019-03-24T00:28:11.240Z,100454.69
2019-03-24T00:30:42.660Z,100457.35
2019-03-24T00:33:14.048Z,100458.19
2019-03-24T00:35:45.580Z,100458.38
2019-03-24T00:38:16.951Z,100448.80
2019-03-24T00:40:48.299Z,100454.27
2019-03-24T00:43:19.605Z,100459.76
2019-03-24T00:45:51.027Z,100462.17
2019-03-24T00:48:22.317Z,100466.86
2019-03-24T00:50:53.787Z,100464.64
2019-03-24T00:53:25.157Z,100459.39
2019-03-24T00:55:56.467Z,100463.92
2019-03-24T00:58:27.739Z,100472.05
2019-03-24T01:00:59.823Z,100475.03
2019-03-24T01:03:31.169Z,100475.70
2019-03-24T01:06:02.550Z,100479.19
2019-03-24T01:08:33.770Z,100482.23
2019-03-24T01:11:05.129Z,100478.11
2019-03-24T01:13:36.419Z,100478.08
2019-03-24T01:16:07.989Z,100476.08
2019-03-24T01:18:39.513Z,100470.42
2019-03-24T01:21:10.803Z,100468.97
2019-03-24T01:23:42.082Z,100465.82
2019-03-24T01:26:13.477Z,100459.16
2019-03-24T01:28:44.775Z,100462.80
2019-03-24T01:31:16.119Z,100450.09
2019-03-24T01:33:48.284Z,100452.97
2019-03-24T01:36:19.587Z,100454.94
2019-03-24T01:38:50.778Z,100450.51
2019-03-24T01:41:21.999Z,100451.75
2019-03-24T01:43:53.363Z,100448.62
2019-03-24T01:46:24.724Z,100451.38
2019-03-24T01:48:56.659Z,100455.05
2019-03-24T01:51:28.029Z,100448.00
2019-03-24T01:53:59.304Z,100442.58
2019-03-24T01:56:30.548Z,100447.10
2019-03-24T01:59:01.746Z,100446.73
2019-03-24T02:01:32.991Z,100440.17
2019-03-24T02:04:04.209Z,100449.70
2019-03-24T02:06:35.333Z,100453.55
2019-03-24T02:09:09.144Z,100458.83
2019-03-24T02:11:40.353Z,100456.55
2019-03-24T02:14:11.615Z,100456.15
2019-03-24T02:16:42.928Z,100453.20
2019-03-24T02:19:14.091Z,100453.33
2019-03-24T02:21:45.447Z,100451.54
2019-03-24T02:24:16.768Z,100453.07
2019-03-24T02:26:48.049Z,100459.88
2019-03-24T02:29:19.398Z,100466.17
2019-03-24T02:31:50.723Z,100460.00
2019-03-24T02:34:22.114Z,100455.64
2019-03-24T02:36:53.393Z,100449.45
2019-03-24T02:39:24.787Z,100454.59
2019-03-24T02:41:56.100Z,100450.25
2019-03-24T02:44:27.330Z,100463.49
2019-03-24T02:46:58.615Z,100459.12
2019-03-24T02:49:29.835Z,100454.86
2019-03-24T02:52:01.181Z,100461.30
2019-03-24T02:54:32.468Z,100453.81
2019-03-24T02:57:04.663Z,100456.93
2019-03-24T02:59:35.923Z,100459.74
2019-03-24T03:02:07.553Z,100451.41
2019-03-24T03:04:38.765Z,100448.98
2019-03-24T03:07:10.104Z,100452.28
2019-03-24T03:09:41.348Z,100453.10
2019-03-24T03:12:12.695Z,100451.19
2019-03-24T03:14:44.067Z,100450.27
2019-03-24T03:17:15.391Z,100452.32
2019-03-24T03:19:46.599Z,100448.44
2019-03-24T03:22:18.303Z,100443.02
2019-03-24T03:24:49.589Z,100446.21
2019-03-24T03:27:20.879Z,100449.70
2019-03-24T03:29:52.292Z,100445.81
2019-03-24T03:32:23.650Z,100435.39
2019-03-24T03:34:54.921Z,100434.13
2019-03-24T03:37:26.291Z,100436.33
2019-03-24T03:39:58.474Z,100436.45
2019-03-24T03:42:30.265Z,100436.83
2019-03-24T03:45:01.525Z,100440.45
2019-03-24T03:47:32.919Z,100432.94
2019-03-24T03:50:04.633Z,100432.45
2019-03-24T03:52:36.145Z,100434.95
2019-03-24T03:55:08.731Z,100429.70
2019-03-24T03:57:40.010Z,100433.67
2019-03-24T04:00:12.599Z,100433.39
2019-03-24T04:02:43.880Z,100434.31
2019-03-24T04:05:15.255Z,100434.78
2019-03-24T04:07:46.542Z,100429.16
2019-03-24T04:10:17.935Z,100421.70
2019-03-24T04:12:49.085Z,100420.43
2019-03-24T04:15:20.384Z,100419.29
2019-03-24T04:17:51.665Z,100415.71
2019-03-24T04:20:23.080Z,100419.66
2019-03-24T04:22:54.326Z,100418.65
2019-03-24T04:25:25.880Z,100414.80
2019-03-24T04:27:57.224Z,100410.16
2019-03-24T04:30:28.839Z,100406.08
2019-03-24T04:33:00.174Z,100413.05
2019-03-24T04:35:31.809Z,100417.77
2019-03-24T04:38:03.591Z,100418.50
2019-03-24T04:40:35.138Z,100422.44
2019-03-24T04:43:06.382Z,100425.23
2019-03-24T04:45:37.823Z,100420.36
2019-03-24T04:48:09.037Z,100416.16
2019-03-24T04:50:40.412Z,100408.00
2019-03-24T04:53:11.873Z,100414.14
2019-03-24T04:55:44.326Z,100410.20
2019-03-24T04:58:18.129Z,100410.63
2019-03-24T05:00:49.784Z,100413.65
2019-03-24T05:03:21.442Z,100410.11
2019-03-24T05:05:53.774Z,100409.25
2019-03-24T05:08:25.638Z,100410.67
2019-03-24T05:10:56.910Z,100401.36
2019-03-24T05:13:28.638Z,100402.19
2019-03-24T05:16:00.149Z,100391.23
2019-03-24T05:18:31.412Z,100396.00
2019-03-24T05:21:02.958Z,100395.53
2019-03-24T05:23:34.257Z,100400.66
2019-03-24T05:26:06.309Z,100396.73
2019-03-24T05:28:37.905Z,100398.94
2019-03-24T05:31:09.284Z,100394.38
2019-03-24T05:33:40.802Z,100391.78
2019-03-24T05:36:12.101Z,100391.11
2019-03-24T05:38:43.531Z,100393.16
2019-03-24T05:41:15.386Z,100397.55
2019-03-24T05:43:46.801Z,100392.87
2019-03-24T05:46:18.362Z,100389.14
2019-03-24T05:48:49.704Z,100390.13
2019-03-24T05:51:21.159Z,100395.25
2019-03-24T05:53:52.579Z,100396.77
2019-03-24T05:56:23.980Z,100404.33
2019-03-24T05:58:55.771Z,100403.31
2019-03-24T06:01:27.609Z,100409.72
2019-03-24T06:04:00.777Z,100411.54
2019-03-24T06:06:31.981Z,100409.69
2019-03-24T06:09:04.916Z,100405.63
2019-03-24T06:11:36.704Z,100410.54
2019-03-24T06:14:08.241Z,100399.89
2019-03-24T06:16:39.544Z,100408.39
2019-03-24T06:19:11.464Z,100413.50
2019-03-24T06:21:43.106Z,100416.39
2019-03-24T06:24:14.499Z,100415.67
2019-03-24T06:26:45.797Z,100417.28
2019-03-24T06:29:17.240Z,100415.47
2019-03-24T06:31:48.775Z,100418.23
2019-03-24T06:34:20.048Z,100426.22
2019-03-24T06:36:51.603Z,100427.39
2019-03-24T06:39:22.851Z,100427.47
2019-03-24T06:41:54.215Z,100419.77
2019-03-24T06:44:25.576Z,100420.81
2019-03-24T06:46:56.895Z,100422.30
2019-03-24T06:49:28.377Z,100430.77
2019-03-24T06:51:59.712Z,100421.64
2019-03-24T06:54:31.264Z,100425.27
2019-03-24T06:57:02.555Z,100427.58
2019-03-24T06:59:34.021Z,100418.36
2019-03-24T07:02:05.355Z,100415.48
2019-03-24T07:04:36.654Z,100416.15
2019-03-24T07:07:08.152Z,100410.54
2019-03-24T07:09:39.446Z,100408.31
2019-03-24T07:12:10.790Z,100408.48
2019-03-24T07:14:42.074Z,100410.14
2019-03-24T07:17:13.411Z,100413.83
2019-03-24T07:19:44.656Z,100412.31
2019-03-24T07:22:16.117Z,100410.36
2019-03-24T07:24:47.425Z,100411.97
2019-03-24T07:27:19.067Z,100410.09
2019-03-24T07:29:50.398Z,100408.03
2019-03-24T07:32:21.784Z,100407.55
2019-03-24T07:34:53.372Z,100402.78
2019-03-24T07:37:24.739Z,100402.17
2019-03-24T07:39:56.209Z,100394.98
2019-03-24T07:42:27.832Z,100396.87
2019-03-24T07:44:59.367Z,100406.47
2019-03-24T07:47:30.624Z,100403.56
2019-03-24T07:50:01.926Z,100400.03
2019-03-24T07:52:33.286Z,100397.05
2019-03-24T07:55:05.074Z,100394.50
2019-03-24T07:57:36.420Z,100389.27
2019-03-24T08:00:09.593Z,100390.03
2019-03-24T08:02:51.018Z,100391.38
2019-03-24T08:05:18.059Z,100402.95
2019-03-24T08:07:49.518Z,100398.50
2019-03-24T08:10:20.887Z,100394.89
2019-03-24T08:12:52.315Z,100391.12
2019-03-24T08:15:23.889Z,100391.41
2019-03-24T08:17:55.440Z,100383.48
2019-03-24T08:20:26.974Z,100381.98
2019-03-24T08:22:59.418Z,100388.20
2019-03-24T08:25:30.898Z,100378.80
2019-03-24T08:28:02.370Z,100373.75
2019-03-24T08:30:37.276Z,100373.43
2019-03-24T08:33:09.059Z,100374.56
2019-03-24T08:35:40.471Z,100369.69
2019-03-24T08:38:11.988Z,100381.56
2019-03-24T08:40:43.325Z,100362.15
2019-03-24T08:43:14.962Z,100362.27
2019-03-24T08:45:46.722Z,100359.91
2019-03-24T08:48:18.125Z,100355.42
2019-03-24T08:50:49.510Z,100341.41
2019-03-24T08:53:23.012Z,100342.48
2019-03-24T08:55:54.847Z,100336.81
2019-03-24T08:58:26.877Z,100334.51
2019-03-24T09:00:58.667Z,100336.02
2019-03-24T09:03:32.638Z,100330.05
2019-03-24T09:06:04.646Z,100323.66
2019-03-24T09:08:36.631Z,100331.45
2019-03-24T09:11:08.527Z,100326.70
2019-03-24T09:13:40.420Z,100329.42
2019-03-24T09:16:12.396Z,100325.52
2019-03-24T09:18:52.514Z,100323.16
2019-03-24T09:21:19.547Z,100321.13
2019-03-24T09:23:50.925Z,100304.43
2019-03-24T09:26:23.190Z,100302.12
2019-03-24T09:28:55.011Z,100307.13
2019-03-24T09:31:27.012Z,100306.92
2019-03-24T09:33:59.124Z,100302.23
2019-03-24T09:36:30.779Z,100305.95
2019-03-24T09:39:02.245Z,100304.41
2019-03-24T09:41:33.879Z,100294.84
2019-03-24T09:44:05.384Z,100292.47
2019-03-24T09:46:37.160Z,100291.48
2019-03-24T09:49:08.607Z,100290.11
2019-03-24T09:51:40.084Z,100287.06
2019-03-24T09:54:11.529Z,100285.63
2019-03-24T09:56:43.002Z,100287.90
2019-03-24T09:59:14.280Z,100292.16
2019-03-24T10:01:45.574Z,100279.17
2019-03-24T10:04:17.488Z,100272.53
2019-03-24T10:06:49.360Z,100265.85
2019-03-24T10:09:20.737Z,100259.59
2019-03-24T10:11:52.218Z,100248.98
2019-03-24T10:14:23.679Z,100252.34
2019-03-24T10:16:55.757Z,100239.95
2019-03-24T10:19:27.240Z,100243.15
2019-03-24T10:21:59.050Z,100237.83
2019-03-24T10:24:30.267Z,100241.51
2019-03-24T10:27:01.775Z,100241.48
2019-03-24T10:29:33.196Z,100232.51
2019-03-24T10:32:04.543Z,100233.20
2019-03-24T10:34:35.888Z,100235.89
2019-03-24T10:37:07.348Z,100213.22
2019-03-24T10:39:41.124Z,100218.14
2019-03-24T10:42:12.690Z,100209.34
2019-03-24T10:44:44.105Z,100210.34
2019-03-24T10:47:15.548Z,100215.88
2019-03-24T10:49:46.884Z,100213.76
2019-03-24T10:52:18.166Z,100204.76
2019-03-24T10:54:49.504Z,100201.29
2019-03-24T10:57:21.079Z,100206.53
2019-03-24T10:59:52.414Z,100207.05
2019-03-24T11:02:23.875Z,100199.77
2019-03-24T11:04:55.598Z,100195.59
2019-03-24T11:07:27.114Z,100192.57
2019-03-24T11:09:58.514Z,100188.12
2019-03-24T11:12:29.874Z,100191.19
2019-03-24T11:15:01.930Z,100181.16
2019-03-24T11:17:33.469Z,100176.16
2019-03-24T11:20:05.809Z,100176.64
2019-03-24T11:22:37.372Z,100166.27
2019-03-24T11:25:11.069Z,100153.22
2019-03-24T11:27:42.500Z,100142.52
2019-03-24T11:30:16.475Z,100130.41
2019-03-24T11:32:47.993Z,100121.39
2019-03-24T11:35:19.498Z,100116.70
2019-03-24T11:37:50.978Z,100111.56
2019-03-24T11:40:22.274Z,100107.72
2019-03-24T11:42:53.839Z,100102.60
2019-03-24T11:45:25.245Z,100094.26
2019-03-24T11:47:56.849Z,100090.67
2019-03-24T11:50:28.304Z,100084.27
2019-03-24T11:52:59.652Z,100071.64
2019-03-24T11:55:31.024Z,100077.92
2019-03-24T11:58:06.035Z,100081.03
2019-03-24T12:00:40.828Z,100070.61
2019-03-24T12:03:13.094Z,100058.42
2019-03-24T12:05:44.889Z,100056.91
2019-03-24T12:08:17.235Z,100055.23
2019-03-24T12:10:48.582Z,100046.94
2019-03-24T12:13:20.068Z,100049.41
2019-03-24T12:15:51.351Z,100035.38
2019-03-24T12:18:22.842Z,100037.19
2019-03-24T12:20:54.326Z,100030.61
2019-03-24T12:23:25.724Z,100020.05
2019-03-24T12:25:57.058Z,100014.73
2019-03-24T12:28:28.416Z,100013.66
2019-03-24T12:30:59.839Z,100006.01
2019-03-24T12:33:31.264Z,100003.83
2019-03-24T12:36:02.657Z,99998.07
2019-03-24T12:38:34.127Z,99996.44
2019-03-24T12:41:05.788Z,99992.38
2019-03-24T12:43:37.169Z,99981.67
2019-03-24T12:46:08.634Z,99987.09
2019-03-24T12:48:39.900Z,99980.50
2019-03-24T12:51:11.390Z,99977.54
2019-03-24T12:53:42.900Z,99970.31
2019-03-24T12:56:14.258Z,99970.20
2019-03-24T12:58:45.579Z,99970.39
2019-03-24T13:01:17.400Z,99971.22
2019-03-24T13:03:48.808Z,99965.45
2019-03-24T13:06:20.178Z,99961.45
2019-03-24T13:08:51.944Z,99964.15
2019-03-24T13:11:23.441Z,99953.44
2019-03-24T13:13:54.799Z,99950.95
2019-03-24T13:16:26.293Z,99951.61
2019-03-24T13:18:57.554Z,99955.77
2019-03-24T13:21:29.011Z,99952.95
2019-03-24T13:24:00.614Z,99949.14
2019-03-24T13:26:32.103Z,99939.27
2019-03-24T13:29:03.677Z,99936.96
2019-03-24T13:31:35.091Z,99929.26
2019-03-24T13:34:06.632Z,99923.44
2019-03-24T13:36:37.958Z,99918.01
2019-03-24T13:39:09.933Z,99907.00
2019-03-24T13:41:41.465Z,99902.77
2019-03-24T13:44:12.738Z,99905.31
2019-03-24T13:46:44.684Z,99898.91
2019-03-24T13:49:16.127Z,99894.94
2019-03-24T13:51:47.794Z,99893.25
2019-03-24T13:54:19.114Z,99894.94
2019-03-24T13:56:50.533Z,99896.19
2019-03-24T13:59:22.028Z,99889.68
2019-03-24T14:01:53.373Z,99888.73
2019-03-24T14:04:24.735Z,99885.01
2019-03-24T14:06:56.610Z,99878.50
2019-03-24T14:09:28.078Z,99870.89
2019-03-24T14:11:59.743Z,99872.69
2019-03-24T14:14:31.319Z,99867.77
2019-03-24T14:17:02.860Z,99869.42
2019-03-24T14:19:34.434Z,99858.38
2019-03-24T14:22:06.304Z,99850.09
2019-03-24T14:24:37.634Z,99845.68
2019-03-24T14:27:08.948Z,99853.00
2019-03-24T14:29:40.394Z,99844.55
2019-03-24T14:32:11.968Z,99836.18
2019-03-24T14:34:43.359Z,99830.50
2019-03-24T14:37:14.880Z,99824.34
2019-03-24T14:39:46.338Z,99828.55
2019-03-24T14:42:17.889Z,99827.17
2019-03-24T14:44:49.307Z,99823.59
2019-03-24T14:47:20.738Z,99807.59
2019-03-24T14:49:52.330Z,99808.64
2019-03-24T14:52:23.824Z,99808.49
2019-03-24T14:54:55.139Z,99801.78
2019-03-24T14:57:26.470Z,99812.20
2019-03-24T14:59:58.110Z,99803.47
2019-03-24T15:02:29.514Z,99802.05
2019-03-24T15:05:00.885Z,99792.84
2019-03-24T15:07:32.441Z,99789.06
2019-03-24T15:10:04.076Z,99791.15
2019-03-24T15:12:35.479Z,99791.77
2019-03-24T15:15:07.704Z,99780.87
2019-03-24T15:17:39.178Z,99780.33
2019-03-24T15:20:10.950Z,99777.19
2019-03-24T15:22:42.395Z,99773.09
2019-03-24T15:25:14.184Z,99775.29
2019-03-24T15:27:45.604Z,99778.68
2019-03-24T15:30:17.703Z,99775.09
2019-03-24T15:32:49.575Z,99775.84
2019-03-24T15:35:20.994Z,99767.38
2019-03-24T15:37:52.798Z,99773.60
2019-03-24T15:40:24.694Z,99766.13
2019-03-24T15:42:56.032Z,99765.97
2019-03-24T15:45:27.440Z,99754.45
2019-03-24T15:47:58.944Z,99755.90
2019-03-24T15:50:30.604Z,99755.36
2019-03-24T15:53:02.198Z,99755.59
2019-03-24T15:55:34.254Z,99752.06
2019-03-24T15:58:05.969Z,99750.84
2019-03-24T16:00:47.670Z,99751.25
2019-03-24T16:03:19.374Z,99745.20
2019-03-24T16:05:50.979Z,99746.75
2019-03-24T16:08:22.528Z,99749.25
2019-03-24T16:10:53.924Z,99749.44
2019-03-24T16:13:25.525Z,99749.13
2019-03-24T16:15:58.463Z,99753.46
2019-03-24T16:18:30.250Z,99752.89
2019-03-24T16:21:01.745Z,99750.31
2019-03-24T16:23:33.102Z,99747.86
2019-03-24T16:26:06.893Z,99746.73
2019-03-24T16:28:38.424Z,99744.53
2019-03-24T16:31:11.068Z,99736.94
2019-03-24T16:33:42.576Z,99742.11
2019-03-24T16:36:14.058Z,99731.31
2019-03-24T16:38:49.123Z,99738.77
2019-03-24T16:41:19.058Z,99732.37
2019-03-24T16:43:50.612Z,99728.19
2019-03-24T16:46:21.984Z,99723.91
2019-03-24T16:48:53.499Z,99720.05
2019-03-24T16:51:25.237Z,99716.38
2019-03-24T16:53:56.827Z,99714.09
2019-03-24T16:56:30.958Z,99711.38
2019-03-24T16:59:02.491Z,99705.23
2019-03-24T17:01:35.013Z,99703.04
2019-03-24T17:04:10.544Z,99706.41
2019-03-24T17:06:44.737Z,99707.20
2019-03-24T17:09:17.793Z,99699.16
2019-03-24T17:11:57.530Z,99695.58
2019-03-24T17:14:29.044Z,99694.97
2019-03-24T17:17:03.859Z,99690.52
2019-03-24T17:19:36.478Z,99694.03
2019-03-24T17:22:11.254Z,99690.80
2019-03-24T17:24:42.902Z,99689.28
2019-03-24T17:27:17.333Z,99694.09
2019-03-24T17:29:51.794Z,99688.44
2019-03-24T17:32:23.629Z,99685.45
2019-03-24T17:34:57.879Z,99688.82
2019-03-24T17:37:30.294Z,99689.02
2019-03-24T17:40:02.834Z,99685.73
2019-03-24T17:42:35.379Z,99686.54
2019-03-24T17:45:08.119Z,99688.63
2019-03-24T17:47:40.749Z,99686.63
2019-03-24T17:50:16.624Z,99679.78
2019-03-24T17:52:52.698Z,99682.43
2019-03-24T17:55:30.964Z,99681.56
2019-03-24T17:58:02.883Z,99684.53
2019-03-24T18:00:46.674Z,99679.34
2019-03-24T18:03:18.215Z,99679.23
2019-03-24T18:05:50.769Z,99672.16
2019-03-24T18:08:23.264Z,99673.78
2019-03-24T18:10:58.318Z,99664.41
2019-03-24T18:13:32.839Z,99666.51
2019-03-24T18:16:04.277Z,99671.34
2019-03-24T18:18:39.929Z,99676.79
2019-03-24T18:21:13.818Z,99672.33
2019-03-24T18:23:50.968Z,99678.88
2019-03-24T18:26:22.478Z,99672.91
2019-03-24T18:28:54.220Z,99675.78
2019-03-24T18:31:28.400Z,99684.23
2019-03-24T18:34:01.899Z,99682.76
2019-03-24T18:36:36.458Z,99680.27
2019-03-24T18:39:11.985Z,99677.69
2019-03-24T18:41:45.048Z,99670.43
2019-03-24T18:44:18.680Z,99666.22
2019-03-24T18:46:52.175Z,99662.83
2019-03-24T18:49:24.794Z,99660.63
2019-03-24T18:52:00.590Z,99660.72
2019-03-24T18:54:34.715Z,99659.37
2019-03-24T18:57:07.395Z,99662.63
2019-03-24T18:59:49.538Z,99661.65
2019-03-24T19:02:24.062Z,99662.06
2019-03-24T19:05:00.354Z,99664.56
2019-03-24T19:07:33.071Z,99658.52
2019-03-24T19:10:10.169Z,99656.34
2019-03-24T19:12:43.838Z,99657.24
2019-03-24T19:15:20.134Z,99648.87
2019-03-24T19:17:53.869Z,99648.48
2019-03-24T19:20:25.268Z,99645.62
2019-03-24T19:23:01.778Z,99648.59
2019-03-24T19:25:42.799Z,99648.76
2019-03-24T19:28:15.710Z,99652.23
2019-03-24T19:30:49.220Z,99645.55
2019-03-24T19:33:23.423Z,99638.98
2019-03-24T19:36:01.959Z,99633.63
2019-03-24T19:38:34.338Z,99632.88
2019-03-24T19:41:09.128Z,99639.91
2019-03-24T19:43:42.840Z,99635.13
2019-03-24T19:46:14.703Z,99638.43
2019-03-24T19:48:47.091Z,99631.64
2019-03-24T19:51:21.100Z,99628.27
2019-03-24T19:53:57.203Z,99628.68
2019-03-24T19:56:28.624Z,99616.39
2019-03-24T19:59:02.088Z,99619.36
2019-03-24T20:01:39.681Z,99620.45
2019-03-24T20:04:12.278Z,99622.55
2019-03-24T20:06:47.914Z,99614.66
2019-03-24T20:09:19.445Z,99610.02
2019-03-24T20:11:54.812Z,99602.14
2019-03-24T20:14:30.069Z,99607.73
2019-03-24T20:17:01.471Z,99604.81
2019-03-24T20:19:36.454Z,99605.33
2019-03-24T20:22:14.135Z,99600.36
2019-03-24T20:24:51.523Z,99596.29
2019-03-24T20:27:30.851Z,99591.13
2019-03-24T20:30:07.415Z,99583.45
2019-03-24T20:32:43.306Z,99572.55
2019-03-24T20:35:18.069Z,99574.55
2019-03-24T20:37:51.783Z,99569.50
2019-03-24T20:40:23.435Z,99563.81
2019-03-24T20:42:55.294Z,99564.33
2019-03-24T20:45:26.800Z,99562.33
2019-03-24T20:48:02.518Z,99565.53
2019-03-24T20:50:40.163Z,99567.37
2019-03-24T20:53:18.472Z,99559.77
2019-03-24T20:55:50.450Z,99551.66
2019-03-24T20:58:23.024Z,99558.00
2019-03-24T21:00:54.448Z,99558.53
2019-03-24T21:03:25.921Z,99552.89
2019-03-24T21:05:57.378Z,99550.91
2019-03-24T21:08:31.645Z,99545.25
2019-03-24T21:11:04.504Z,99547.69
2019-03-24T21:13:35.994Z,99544.80
2019-03-24T21:16:09.824Z,99539.69
2019-03-24T21:18:41.260Z,99533.73
2019-03-24T21:21:12.549Z,99532.09
2019-03-24T21:23:43.778Z,99529.94
2019-03-24T21:26:15.245Z,99527.89
2019-03-24T21:28:46.658Z,99521.03
2019-03-24T21:31:18.015Z,99521.81
2019-03-24T21:33:49.318Z,99527.16
2019-03-24T21:36:22.125Z,99517.50
2019-03-24T21:38:53.549Z,99518.72
2019-03-24T21:41:24.942Z,99514.86
2019-03-24T21:43:56.529Z,99509.03
2019-03-24T21:46:27.790Z,99504.50
2019-03-24T21:48:59.064Z,99512.96
2019-03-24T21:51:30.322Z,99498.03
2019-03-24T21:54:02.494Z,99497.83
2019-03-24T21:56:34.019Z,99497.89
2019-03-24T21:59:05.342Z,99498.27
2019-03-24T22:01:36.675Z,99491.18
2019-03-24T22:04:08.061Z,99490.37
2019-03-24T22:06:40.004Z,99494.45
2019-03-24T22:09:11.621Z,99484.22
2019-03-24T22:11:42.859Z,99482.09
2019-03-24T22:14:15.576Z,99485.30
2019-03-24T22:16:46.959Z,99483.34
2019-03-24T22:19:18.425Z,99485.33
2019-03-24T22:21:49.570Z,99473.14
2019-03-24T22:24:20.940Z,99473.69
2019-03-24T22:26:52.399Z,99473.27
2019-03-24T22:29:23.799Z,99467.97
2019-03-24T22:31:55.126Z,99462.47
2019-03-24T22:34:26.333Z,99463.71
2019-03-24T22:36:57.465Z,99452.75
2019-03-24T22:39:29.236Z,99452.59
2019-03-24T22:42:00.739Z,99450.19
2019-03-24T22:44:31.904Z,99449.11
2019-03-24T22:47:03.439Z,99442.05
2019-03-24T22:49:34.643Z,99454.58
2019-03-24T22:52:07.407Z,99456.73
2019-03-24T22:54:39.476Z,99446.82
2019-03-24T22:57:10.890Z,99449.80
2019-03-24T22:59:42.301Z,99451.64
2019-03-24T23:02:13.783Z,99448.36
2019-03-24T23:04:45.171Z,99445.58
2019-03-24T23:07:16.663Z,99443.13
2019-03-24T23:09:48.159Z,99445.37
2019-03-24T23:12:19.604Z,99434.51
2019-03-24T23:14:50.862Z,99427.81
2019-03-24T23:17:22.213Z,99428.66
2019-03-24T23:19:53.870Z,99427.27
2019-03-24T23:22:25.208Z,99422.19
2019-03-24T23:24:56.566Z,99414.20
2019-03-24T23:27:27.965Z,99406.05
2019-03-24T23:29:59.372Z,99407.30
2019-03-24T23:32:30.734Z,99404.63
2019-03-24T23:35:02.327Z,99402.58
2019-03-24T23:37:33.654Z,99400.77
2019-03-24T23:40:05.613Z,99417.26
2019-03-24T23:42:36.968Z,99412.34
2019-03-24T23:45:11.955Z,99405.49
2019-03-24T23:47:43.344Z,99402.27
2019-03-24T23:50:15.030Z,99402.59
2019-03-24T23:52:46.325Z,99408.86
2019-03-24T23:55:18.099Z,99404.43
2019-03-24T23:57:49.650Z,99396.23
